Date,TemperatureHighF,TemperatureAvgF,TemperatureLowF,DewpointHighF,DewpointAvgF,DewpointLowF,HumidityHigh,HumidityAvg,HumidityLow,PressureMaxIn,PressureMinIn,WindSpeedMaxMPH,WindSpeedAvgMPH,GustSpeedMaxMPH,PrecipitationSumIn
2013-3-1,37.0,34.5,33.0,36.0,33.1,31.0,99,95,84,30.03,29.96,11,2,14,0.12
2013-3-2,33.0,31.3,28.0,32.0,27.0,19.0,97,84,71,30.13,30.00,11,3,18,0.05
2013-3-3,41.0,31.7,19.0,27.0,19.0,13.0,88,61,38,30.13,30.01,7,1,13,0.00
2013-3-4,56.0,44.5,34.0,41.0,27.5,20.0,81,52,36,30.03,29.71,16,5,21,0.07
2013-3-5,52.0,41.8,33.0,44.0,20.4,-7.0,99,58,10,30.00,29.66,16,4,29,0.51
2013-3-6,40.0,34.4,30.0,26.0,24.6,22.0,76,67,55,30.26,29.99,19,4,29,0.00
2013-3-7,42.0,33.2,25.0,29.0,25.4,21.0,89,74,54,30.34,30.24,7,3,12,0.00
2013-3-8,53.0,39.6,25.0,31.0,26.9,22.0,93,64,33,30.36,30.16,12,4,17,0.00
2013-3-9,64.0,51.2,40.0,36.0,30.7,27.0,65,47,27,30.16,29.86,14,4,20,0.00
2013-3-10,65.0,57.1,50.0,54.0,32.2,-4.0,96,45,10,29.87,29.64,28,10,34,1.01
2013-3-11,54.0,42.9,36.0,46.0,31.2,-2.0,92,71,10,29.93,29.66,14,6,26,1.01
2013-3-12,51.0,39.4,27.0,33.0,27.7,20.0,99,66,34,30.08,29.93,12,2,17,0.00
2013-3-13,43.0,36.0,27.0,28.0,20.8,16.0,75,55,36,30.35,30.08,13,4,25,0.00
2013-3-14,44.0,33.9,22.0,29.0,22.4,18.0,89,65,41,30.35,30.08,10,3,14,0.00
2013-3-15,74.0,56.3,38.0,50.0,39.0,23.0,70,53,38,30.08,29.71,20,6,31,0.00
2013-3-16,71.0,60.4,45.0,53.0,46.5,38.0,77,61,47,29.87,29.67,17,7,31,0.00
2013-3-17,47.0,43.1,40.0,40.0,12.8,-11.0,97,45,10,29.93,29.65,15,7,20,0.54
2013-3-18,55.0,47.7,37.0,51.0,18.2,-10.0,97,47,10,29.91,29.57,16,3,24,0.88
2013-3-19,52.0,43.0,33.0,38.0,22.2,-13.0,99,52,10,30.12,29.91,7,2,17,0.01
2013-3-20,45.0,35.1,27.0,31.0,23.5,14.0,83,63,44,30.12,30.00,10,3,21,0.00
2013-3-21,40.0,30.1,18.0,19.0,14.4,10.0,87,55,31,30.05,29.90,7,2,12,0.00
2013-3-22,43.0,37.0,32.0,27.0,21.5,16.0,62,53,45,29.96,29.88,10,5,13,0.00
2013-3-23,53.0,44.9,39.0,45.0,33.1,25.0,98,64,49,29.92,29.65,12,6,20,0.14
2013-3-24,49.0,41.9,35.0,47.0,18.0,-11.0,99,56,10,29.69,29.37,20,7,28,0.43
2013-3-25,37.0,34.2,32.0,32.0,28.5,25.0,97,80,69,30.09,29.68,17,7,30,0.00
2013-3-26,41.0,34.8,30.0,31.0,28.6,25.0,97,79,55,30.29,30.09,7,2,13,0.03
2013-3-27,49.0,36.5,23.0,32.0,25.5,21.0,96,68,38,30.34,30.24,6,1,14,0.00
2013-3-28,58.0,46.7,36.0,36.0,32.0,29.0,87,59,35,30.29,30.17,7,2,10,0.00
2013-3-29,55.0,48.3,44.0,47.0,42.3,35.0,95,80,59,30.20,30.09,11,3,19,0.33
2013-3-30,54.0,49.2,41.0,50.0,17.8,-99.9,99,46,10,30.12,29.83,10,3,14,0.29
2013-3-31,63.0,55.9,48.0,55.0,25.6,-2.0,91,45,10,29.86,29.78,7,2,11,0.03